sensor_id;sensor_type;location;lat;lon;timestamp;pressure;altitude;pressure_sealevel;temperature;humidity
64352;BME280;50680;52.626;-8.668;2023-01-27T14:08:36;103375.78;;;9.13;100.00
64352;BME280;50680;52.626;-8.668;2023-01-27T14:11:13;103364.31;;;9.25;100.00
64352;BME280;50680;52.626;-8.668;2023-01-27T14:16:58;103355.19;;;9.59;100.00
64352;BME280;50680;52.626;-8.668;2023-01-27T14:19:39;103354.19;;;9.68;100.00
64352;BME280;50680;52.626;-8.668;2023-01-27T14:27:26;103360.53;;;9.50;100.00
64352;BME280;50680;52.626;-8.668;2023-01-27T14:30:09;103374.63;;;9.38;100.00
64352;BME280;50680;52.626;-8.668;2023-01-27T14:54:08;103363.38;;;10.00;100.00
64352;BME280;50680;52.626;-8.668;2023-01-27T15:10:19;103356.25;;;10.07;100.00
64352;BME280;50680;52.626;-8.668;2023-01-27T15:24:10;103336.84;;;9.58;100.00
64352;BME280;50680;52.626;-8.668;2023-01-27T15:26:42;103334.06;;;9.72;100.00
64352;BME280;50680;52.626;-8.668;2023-01-27T15:29:14;103332.38;;;9.68;100.00
64352;BME280;50680;52.626;-8.668;2023-01-27T15:31:41;103346.28;;;9.73;100.00
64352;BME280;50680;52.626;-8.668;2023-01-27T15:36:39;103344.53;;;9.70;100.00
64352;BME280;50680;52.626;-8.668;2023-01-27T15:39:23;103345.50;;;9.66;100.00
64352;BME280;50680;52.626;-8.668;2023-01-27T15:44:38;103343.00;;;9.57;100.00
64352;BME280;50680;52.626;-8.668;2023-01-27T15:47:19;103337.94;;;9.43;100.00
64352;BME280;50680;52.626;-8.668;2023-01-27T15:49:55;103347.44;;;9.52;100.00
64352;BME280;50680;52.626;-8.668;2023-01-27T15:52:31;103341.31;;;9.50;100.00
64352;BME280;50680;52.626;-8.668;2023-01-27T15:55:02;103340.50;;;9.45;100.00
64352;BME280;50680;52.626;-8.668;2023-01-27T15:57:37;103349.38;;;9.34;100.00
64352;BME280;50680;52.626;-8.668;2023-01-27T16:00:21;103356.38;;;9.32;100.00
64352;BME280;50680;52.626;-8.668;2023-01-27T16:02:52;103365.22;;;9.22;100.00
64352;BME280;50680;52.626;-8.668;2023-01-27T16:05:22;103363.53;;;9.16;100.00
64352;BME280;50680;52.626;-8.668;2023-01-27T16:07:52;103377.56;;;9.12;100.00
64352;BME280;50680;52.626;-8.668;2023-01-27T16:10:23;103376.75;;;9.04;100.00
64352;BME280;50680;52.626;-8.668;2023-01-27T16:13:20;103369.03;;;8.90;100.00
64352;BME280;50680;52.626;-8.668;2023-01-27T16:16:20;103368.09;;;8.96;100.00
64352;BME280;50680;52.626;-8.668;2023-01-27T16:18:50;103364.75;;;8.81;100.00
64352;BME280;50680;52.626;-8.668;2023-01-27T16:21:41;103360.47;;;8.73;100.00
64352;BME280;50680;52.626;-8.668;2023-01-27T16:24:20;103364.91;;;8.66;100.00
64352;BME280;50680;52.626;-8.668;2023-01-27T16:26:53;103353.63;;;8.59;100.00
64352;BME280;50680;52.626;-8.668;2023-01-27T16:29:35;103351.94;;;8.52;100.00
64352;BME280;50680;52.626;-8.668;2023-01-27T16:32:18;103345.91;;;8.39;100.00
64352;BME280;50680;52.626;-8.668;2023-01-27T16:34:49;103346.81;;;8.32;100.00
64352;BME280;50680;52.626;-8.668;2023-01-27T16:40:22;103350.44;;;8.11;100.00
64352;BME280;50680;52.626;-8.668;2023-01-27T16:42:55;103349.59;;;8.10;100.00
64352;BME280;50680;52.626;-8.668;2023-01-27T16:45:28;103341.84;;;8.00;100.00
64352;BME280;50680;52.626;-8.668;2023-01-27T16:48:02;103344.50;;;7.89;100.00
64352;BME280;50680;52.626;-8.668;2023-01-27T16:53:03;103355.88;;;7.77;100.00
64352;BME280;50680;52.626;-8.668;2023-01-27T16:55:31;103355.91;;;7.71;100.00
64352;BME280;50680;52.626;-8.668;2023-01-27T16:57:59;103357.66;;;7.69;100.00
64352;BME280;50680;52.626;-8.668;2023-01-27T17:00:29;103358.56;;;7.62;100.00
64352;BME280;50680;52.626;-8.668;2023-01-27T17:03:00;103362.03;;;7.62;100.00
64352;BME280;50680;52.626;-8.668;2023-01-27T17:05:28;103359.44;;;7.58;100.00
64352;BME280;50680;52.626;-8.668;2023-01-27T17:08:12;103363.84;;;7.51;100.00
64352;BME280;50680;52.626;-8.668;2023-01-27T17:11:03;103369.06;;;7.46;100.00
64352;BME280;50680;52.626;-8.668;2023-01-27T17:13:33;103373.44;;;7.44;100.00
64352;BME280;50680;52.626;-8.668;2023-01-27T17:16:03;103373.44;;;7.41;100.00
64352;BME280;50680;52.626;-8.668;2023-01-27T17:18:34;103366.50;;;7.37;100.00
64352;BME280;50680;52.626;-8.668;2023-01-27T17:24:19;103372.63;;;7.25;100.00
64352;BME280;50680;52.626;-8.668;2023-01-27T17:26:49;103378.69;;;7.20;100.00
64352;BME280;50680;52.626;-8.668;2023-01-27T17:29:21;103379.63;;;7.06;100.00
64352;BME280;50680;52.626;-8.668;2023-01-27T17:31:49;103385.72;;;6.97;100.00
64352;BME280;50680;52.626;-8.668;2023-01-27T17:34:18;103385.72;;;6.90;100.00
64352;BME280;50680;52.626;-8.668;2023-01-27T17:37:25;103393.56;;;6.68;100.00
64352;BME280;50680;52.626;-8.668;2023-01-27T17:39:57;103391.81;;;6.53;100.00
64352;BME280;50680;52.626;-8.668;2023-01-27T17:42:28;103402.22;;;6.41;100.00
64352;BME280;50680;52.626;-8.668;2023-01-27T17:45:19;103391.78;;;6.29;100.00
64352;BME280;50680;52.626;-8.668;2023-01-27T17:47:46;103403.06;;;6.23;100.00
64352;BME280;50680;52.626;-8.668;2023-01-27T17:50:21;103396.09;;;6.13;100.00
64352;BME280;50680;52.626;-8.668;2023-01-27T17:52:50;103390.78;;;5.94;100.00
64352;BME280;50680;52.626;-8.668;2023-01-27T17:55:23;103391.59;;;5.73;100.00
64352;BME280;50680;52.626;-8.668;2023-01-27T17:57:59;103388.88;;;5.55;100.00
64352;BME280;50680;52.626;-8.668;2023-01-27T18:00:34;103394.84;;;5.32;100.00
64352;BME280;50680;52.626;-8.668;2023-01-27T18:03:13;103389.50;;;5.14;100.00
64352;BME280;50680;52.626;-8.668;2023-01-27T18:05:47;103380.72;;;4.95;100.00
64352;BME280;50680;52.626;-8.668;2023-01-27T18:08:16;103386.63;;;4.75;100.00
64352;BME280;50680;52.626;-8.668;2023-01-27T18:10:45;103384.81;;;4.65;100.00
64352;BME280;50680;52.626;-8.668;2023-01-27T18:15:48;103387.13;;;4.31;100.00
64352;BME280;50680;52.626;-8.668;2023-01-27T18:23:31;103377.16;;;3.90;100.00
64352;BME280;50680;52.626;-8.668;2023-01-27T18:28:57;103385.63;;;3.76;100.00
64352;BME280;50680;52.626;-8.668;2023-01-27T18:31:34;103379.47;;;3.67;100.00
64352;BME280;50680;52.626;-8.668;2023-01-27T18:36:35;103401.75;;;3.52;100.00
64352;BME280;50680;52.626;-8.668;2023-01-27T18:39:23;103401.69;;;3.45;100.00
64352;BME280;50680;52.626;-8.668;2023-01-27T18:41:49;103399.84;;;3.39;100.00
64352;BME280;50680;52.626;-8.668;2023-01-27T18:44:16;103410.16;;;3.33;100.00
64352;BME280;50680;52.626;-8.668;2023-01-27T18:46:44;103404.81;;;3.22;100.00
64352;BME280;50680;52.626;-8.668;2023-01-27T18:49:11;103394.31;;;3.14;100.00
64352;BME280;50680;52.626;-8.668;2023-01-27T18:51:38;103396.81;;;3.08;100.00
64352;BME280;50680;52.626;-8.668;2023-01-27T18:54:07;103398.53;;;3.08;100.00
64352;BME280;50680;52.626;-8.668;2023-01-27T18:56:34;103394.13;;;3.02;100.00
64352;BME280;50680;52.626;-8.668;2023-01-27T18:59:00;103392.38;;;3.01;100.00
64352;BME280;50680;52.626;-8.668;2023-01-27T19:01:27;103394.81;;;2.90;100.00
64352;BME280;50680;52.626;-8.668;2023-01-27T19:03:54;103394.72;;;2.84;100.00
64352;BME280;50680;52.626;-8.668;2023-01-27T19:06:23;103398.94;;;2.79;100.00
64352;BME280;50680;52.626;-8.668;2023-01-27T19:08:51;103391.13;;;2.76;100.00
64352;BME280;50680;52.626;-8.668;2023-01-27T19:11:20;103389.28;;;2.69;100.00
64352;BME280;50680;52.626;-8.668;2023-01-27T19:13:46;103390.06;;;2.63;100.00
64352;BME280;50680;52.626;-8.668;2023-01-27T19:16:15;103396.03;;;2.60;100.00
64352;BME280;50680;52.626;-8.668;2023-01-27T19:18:43;103393.34;;;2.54;100.00
64352;BME280;50680;52.626;-8.668;2023-01-27T19:21:14;103391.69;;;2.58;100.00
64352;BME280;50680;52.626;-8.668;2023-01-27T19:23:41;103402.66;;;2.43;100.00
64352;BME280;50680;52.626;-8.668;2023-01-27T19:26:18;103406.88;;;2.38;100.00
64352;BME280;50680;52.626;-8.668;2023-01-27T19:28:49;103405.84;;;2.30;100.00
64352;BME280;50680;52.626;-8.668;2023-01-27T19:31:17;103417.03;;;2.27;100.00
64352;BME280;50680;52.626;-8.668;2023-01-27T19:33:44;103407.16;;;2.06;100.00
64352;BME280;50680;52.626;-8.668;2023-01-27T19:36:16;103412.16;;;1.98;100.00
64352;BME280;50680;52.626;-8.668;2023-01-27T19:38:51;103409.31;;;1.86;100.00
64352;BME280;50680;52.626;-8.668;2023-01-27T19:41:18;103410.84;;;1.76;100.00
64352;BME280;50680;52.626;-8.668;2023-01-27T19:43:45;103400.44;;;1.73;100.00
64352;BME280;50680;52.626;-8.668;2023-01-27T19:46:19;103409.03;;;1.72;100.00
64352;BME280;50680;52.626;-8.668;2023-01-27T19:48:47;103410.53;;;1.62;100.00
64352;BME280;50680;52.626;-8.668;2023-01-27T19:51:15;103408.50;;;1.47;100.00
64352;BME280;50680;52.626;-8.668;2023-01-27T19:53:43;103425.00;;;1.53;100.00
64352;BME280;50680;52.626;-8.668;2023-01-27T19:56:11;103431.13;;;1.56;100.00
64352;BME280;50680;52.626;-8.668;2023-01-27T19:58:43;103436.13;;;1.50;100.00
64352;BME280;50680;52.626;-8.668;2023-01-27T20:01:11;103440.44;;;1.49;100.00
64352;BME280;50680;52.626;-8.668;2023-01-27T20:03:38;103442.81;;;1.40;100.00
64352;BME280;50680;52.626;-8.668;2023-01-27T20:06:26;103437.69;;;1.43;100.00
64352;BME280;50680;52.626;-8.668;2023-01-27T20:08:55;103428.94;;;1.37;100.00
64352;BME280;50680;52.626;-8.668;2023-01-27T20:11:38;103434.09;;;1.37;100.00
64352;BME280;50680;52.626;-8.668;2023-01-27T20:14:17;103428.91;;;1.35;100.00
64352;BME280;50680;52.626;-8.668;2023-01-27T20:16:45;103435.75;;;1.31;100.00
64352;BME280;50680;52.626;-8.668;2023-01-27T20:19:14;103441.56;;;1.24;100.00
64352;BME280;50680;52.626;-8.668;2023-01-27T20:21:42;103440.63;;;1.21;100.00
64352;BME280;50680;52.626;-8.668;2023-01-27T20:24:14;103440.50;;;1.15;100.00
64352;BME280;50680;52.626;-8.668;2023-01-27T20:26:41;103446.56;;;1.17;100.00
64352;BME280;50680;52.626;-8.668;2023-01-27T20:29:08;103440.47;;;1.13;100.00
64352;BME280;50680;52.626;-8.668;2023-01-27T20:31:37;103448.38;;;1.21;100.00
64352;BME280;50680;52.626;-8.668;2023-01-27T20:34:04;103437.19;;;1.20;100.00
64352;BME280;50680;52.626;-8.668;2023-01-27T20:36:31;103440.59;;;1.19;100.00
64352;BME280;50680;52.626;-8.668;2023-01-27T20:38:58;103445.84;;;1.22;100.00
64352;BME280;50680;52.626;-8.668;2023-01-27T20:41:25;103438.19;;;1.27;100.00
64352;BME280;50680;52.626;-8.668;2023-01-27T20:43:59;103440.75;;;1.25;100.00
64352;BME280;50680;52.626;-8.668;2023-01-27T20:46:27;103440.91;;;1.31;100.00
64352;BME280;50680;52.626;-8.668;2023-01-27T20:48:54;103439.28;;;1.37;100.00
64352;BME280;50680;52.626;-8.668;2023-01-27T20:51:21;103440.09;;;1.34;100.00
64352;BME280;50680;52.626;-8.668;2023-01-27T20:53:48;103450.34;;;1.31;100.00
64352;BME280;50680;52.626;-8.668;2023-01-27T20:56:17;103447.69;;;1.28;100.00
64352;BME280;50680;52.626;-8.668;2023-01-27T20:58:44;103451.78;;;1.18;100.00
64352;BME280;50680;52.626;-8.668;2023-01-27T21:01:19;103444.75;;;1.12;100.00
64352;BME280;50680;52.626;-8.668;2023-01-27T21:03:46;103443.56;;;1.00;100.00
64352;BME280;50680;52.626;-8.668;2023-01-27T21:06:15;103445.97;;;0.92;100.00
64352;BME280;50680;52.626;-8.668;2023-01-27T21:08:43;103436.34;;;0.86;100.00
64352;BME280;50680;52.626;-8.668;2023-01-27T21:11:10;103433.81;;;0.88;100.00
64352;BME280;50680;52.626;-8.668;2023-01-27T21:13:38;103431.38;;;0.94;100.00
64352;BME280;50680;52.626;-8.668;2023-01-27T21:16:05;103440.22;;;1.04;100.00
64352;BME280;50680;52.626;-8.668;2023-01-27T21:18:32;103422.78;;;0.95;100.00
64352;BME280;50680;52.626;-8.668;2023-01-27T21:20:59;103434.66;;;0.87;100.00
64352;BME280;50680;52.626;-8.668;2023-01-27T21:23:28;103429.06;;;0.70;100.00
64352;BME280;50680;52.626;-8.668;2023-01-27T21:25:55;103422.78;;;0.60;100.00
64352;BME280;50680;52.626;-8.668;2023-01-27T21:28:22;103425.94;;;0.50;100.00
64352;BME280;50680;52.626;-8.668;2023-01-27T21:30:49;103412.16;;;0.49;100.00
64352;BME280;50680;52.626;-8.668;2023-01-27T21:33:15;103396.41;;;0.39;100.00
64352;BME280;50680;52.626;-8.668;2023-01-27T21:35:42;103419.06;;;0.49;100.00
64352;BME280;50680;52.626;-8.668;2023-01-27T21:38:09;103415.56;;;0.47;100.00
64352;BME280;50680;52.626;-8.668;2023-01-27T21:40:36;103416.22;;;0.40;100.00
64352;BME280;50680;52.626;-8.668;2023-01-27T21:43:07;103416.03;;;0.32;100.00
64352;BME280;50680;52.626;-8.668;2023-01-27T21:45:56;103408.09;;;0.26;100.00
64352;BME280;50680;52.626;-8.668;2023-01-27T21:48:24;103400.81;;;0.11;100.00
64352;BME280;50680;52.626;-8.668;2023-01-27T21:50:51;103383.34;;;0.01;100.00
64352;BME280;50680;52.626;-8.668;2023-01-27T21:53:18;103396.00;;;-0.07;100.00
64352;BME280;50680;52.626;-8.668;2023-01-27T21:55:45;103399.56;;;-0.04;100.00
64352;BME280;50680;52.626;-8.668;2023-01-27T21:58:11;103397.16;;;0.03;100.00
64352;BME280;50680;52.626;-8.668;2023-01-27T22:00:38;103404.13;;;0.07;100.00
64352;BME280;50680;52.626;-8.668;2023-01-27T22:03:05;103406.09;;;0.14;100.00
64352;BME280;50680;52.626;-8.668;2023-01-27T22:05:34;103406.22;;;0.20;100.00
64352;BME280;50680;52.626;-8.668;2023-01-27T22:08:01;103401.13;;;0.22;100.00
64352;BME280;50680;52.626;-8.668;2023-01-27T22:10:29;103395.16;;;0.24;100.00
64352;BME280;50680;52.626;-8.668;2023-01-27T22:12:58;103405.66;;;0.30;100.00
64352;BME280;50680;52.626;-8.668;2023-01-27T22:15:25;103410.91;;;0.33;100.00
64352;BME280;50680;52.626;-8.668;2023-01-27T22:17:57;103414.34;;;0.34;100.00
64352;BME280;50680;52.626;-8.668;2023-01-27T22:20:26;103417.06;;;0.39;100.00
64352;BME280;50680;52.626;-8.668;2023-01-27T22:22:53;103422.38;;;0.45;100.00
64352;BME280;50680;52.626;-8.668;2023-01-27T22:25:20;103431.38;;;0.59;100.00
64352;BME280;50680;52.626;-8.668;2023-01-27T22:27:47;103422.72;;;0.59;100.00
64352;BME280;50680;52.626;-8.668;2023-01-27T22:30:17;103417.78;;;0.33;100.00
64352;BME280;50680;52.626;-8.668;2023-01-27T22:32:45;103431.31;;;0.26;100.00
64352;BME280;50680;52.626;-8.668;2023-01-27T22:35:14;103440.44;;;0.13;100.00
64352;BME280;50680;52.626;-8.668;2023-01-27T22:37:42;103439.38;;;0.06;100.00
64352;BME280;50680;52.626;-8.668;2023-01-27T22:40:10;103429.78;;;0.01;100.00
64352;BME280;50680;52.626;-8.668;2023-01-27T22:42:38;103432.91;;;-0.10;100.00
64352;BME280;50680;52.626;-8.668;2023-01-27T22:45:08;103442.13;;;-0.18;100.00
64352;BME280;50680;52.626;-8.668;2023-01-27T22:47:35;103435.25;;;-0.17;100.00
64352;BME280;50680;52.626;-8.668;2023-01-27T22:50:02;103436.88;;;-0.21;100.00
64352;BME280;50680;52.626;-8.668;2023-01-27T22:52:29;103432.38;;;-0.28;100.00
64352;BME280;50680;52.626;-8.668;2023-01-27T22:54:56;103416.75;;;-0.34;100.00
64352;BME280;50680;52.626;-8.668;2023-01-27T22:57:23;103420.03;;;-0.39;100.00
64352;BME280;50680;52.626;-8.668;2023-01-27T22:59:56;103409.41;;;-0.49;100.00
64352;BME280;50680;52.626;-8.668;2023-01-27T23:02:25;103408.25;;;-0.59;100.00
64352;BME280;50680;52.626;-8.668;2023-01-27T23:04:53;103416.88;;;-0.59;100.00
64352;BME280;50680;52.626;-8.668;2023-01-27T23:07:20;103409.81;;;-0.64;100.00
64352;BME280;50680;52.626;-8.668;2023-01-27T23:09:47;103408.78;;;-0.69;100.00
64352;BME280;50680;52.626;-8.668;2023-01-27T23:12:15;103403.84;;;-0.63;100.00
64352;BME280;50680;52.626;-8.668;2023-01-27T23:14:41;103405.78;;;-0.56;100.00
64352;BME280;50680;52.626;-8.668;2023-01-27T23:17:08;103419.13;;;-0.41;100.00
64352;BME280;50680;52.626;-8.668;2023-01-27T23:19:35;103425.50;;;-0.28;100.00
64352;BME280;50680;52.626;-8.668;2023-01-27T23:22:02;103420.78;;;-0.12;100.00
64352;BME280;50680;52.626;-8.668;2023-01-27T23:24:29;103416.88;;;0.01;100.00
64352;BME280;50680;52.626;-8.668;2023-01-27T23:26:55;103427.44;;;0.10;100.00
64352;BME280;50680;52.626;-8.668;2023-01-27T23:29:22;103427.75;;;0.21;100.00
64352;BME280;50680;52.626;-8.668;2023-01-27T23:31:51;103427.13;;;0.29;100.00
64352;BME280;50680;52.626;-8.668;2023-01-27T23:34:19;103429.69;;;0.29;100.00
64352;BME280;50680;52.626;-8.668;2023-01-27T23:36:46;103439.25;;;0.32;100.00
64352;BME280;50680;52.626;-8.668;2023-01-27T23:39:14;103437.66;;;0.37;100.00
64352;BME280;50680;52.626;-8.668;2023-01-27T23:41:41;103437.81;;;0.42;100.00
64352;BME280;50680;52.626;-8.668;2023-01-27T23:44:09;103448.34;;;0.51;100.00
64352;BME280;50680;52.626;-8.668;2023-01-27T23:46:37;103449.50;;;0.61;100.00
64352;BME280;50680;52.626;-8.668;2023-01-27T23:49:03;103442.69;;;0.64;100.00
64352;BME280;50680;52.626;-8.668;2023-01-27T23:51:30;103446.28;;;0.69;100.00
64352;BME280;50680;52.626;-8.668;2023-01-27T23:53:58;103454.16;;;0.75;100.00
64352;BME280;50680;52.626;-8.668;2023-01-27T23:56:25;103446.63;;;0.85;100.00
64352;BME280;50680;52.626;-8.668;2023-01-27T23:58:51;103448.59;;;0.93;100.00
